Форум клана ЧПУшников

Информация о пользователе

Привет, Гость! Войдите или зарегистрируйтесь.


Вы здесь » Форум клана ЧПУшников » Лазерные станки


Лазерные станки

Тем 401 страница 480 из 559

Тема Ответов Просмотров Последнее сообщение
2 264 09-07-2016 14:27:04  Killa312
11 679 07-07-2016 15:18:42  Hotory
25 712 27-06-2016 21:44:32  Salon-max
38 2099 27-06-2016 05:30:23  Юрецкий
14 436 26-06-2016 11:49:07  Quark
48 1295 24-06-2016 20:06:01  Иван1985
9 659 24-06-2016 19:54:50  Иван1985
16 698 24-06-2016 15:25:23  Sergey AA
2 122 24-06-2016 12:14:53  messer1988
8 498 22-06-2016 15:04:25  Sergey AA
8 1107 16-06-2016 22:36:09  megagad
412 Лазерное оборудование  Администратор  [ 1 2 3 ]
204 18208 12-06-2016 11:02:33  Andrey55
4 242 06-06-2016 09:19:33  Zmeei
24 973 02-06-2016 16:29:32  Sofka
16 398 02-06-2016 09:43:13  ilcomp
3 152 31-05-2016 11:04:49  SmileCat
14 488 29-05-2016 10:38:37  Neudrums
19 997 28-05-2016 00:03:48  Sborka
19 247 25-05-2016 12:15:46  Mikky
8 420 24-05-2016 15:31:24  sonr
21 2749 23-05-2016 23:42:46  Avel
422 Волнистый рез  angrydemon
4 252 23-05-2016 17:44:30  YuSTas
2 126 05-05-2016 11:02:05  Kuz
7 436 04-05-2016 01:16:19  snowman
10 343 28-04-2016 20:21:01  Kirian
1 155 28-04-2016 19:58:34  Kirian
37 1170 28-04-2016 14:14:04  neotex
3 683 27-04-2016 20:39:04  andrey_e
6 292 27-04-2016 16:16:09  denisej
430 Reci s2  Neudrums
35 904 26-04-2016 21:17:31  Элинка
5 496 25-04-2016 16:52:18  MPN
15 1514 23-04-2016 22:53:06  Sokrat
9 554 23-04-2016 17:45:11  Tab
35 1133 23-04-2016 13:05:00  Valera5609
18 1040 21-04-2016 12:07:58  f.laser
1 176 17-04-2016 23:10:04  megagad
437 Резка с углекислотой  Виктор Краски
23 806 17-04-2016 08:59:55  Flint2015
13 1894 15-04-2016 11:34:20  ImageLaser
11 304 11-04-2016 14:35:21  MaxMaster
13 398 09-04-2016 20:30:46  aldushin
5 286 06-04-2016 17:28:09  daguss
442 Закрыта Фото готовых работ выполненных на лазере  Администратор  [ 1 2 3  10 ]
991 97123 29-03-2016 17:50:18  sva-don
443 Закрыта Резко упала мощность  Neudrums
10 364 24-03-2016 00:59:57  Neudrums
5 455 22-03-2016 20:12:39  Дилик
445 Прошу помощи.  Назар
5 332 16-03-2016 09:51:09  Назар
8 250 14-03-2016 16:51:53  Расулыч
7 474 10-03-2016 20:36:59  chirik
5 783 07-03-2016 20:32:32  Flint2015
19 1766 04-03-2016 17:27:39  Airside
4 220 29-02-2016 22:43:44  nikson
5 182 27-02-2016 08:50:26  Flint2015
452 Тестирование размера реза  Виктор Краски
9 482 26-02-2016 16:55:55  daguss
453 кривая резка  Восходник
17 506 26-02-2016 00:06:30  semerochka
80 6291 22-02-2016 20:51:36  Kinetic
17 1016 22-02-2016 12:02:26  Kinetic
5 639 14-02-2016 15:24:59  gabber
7 490 14-02-2016 12:43:54  Zippo
12 385 12-02-2016 17:15:38  Yaroslavl
2 216 12-02-2016 10:23:44  Администратор
22 908 07-02-2016 15:27:40  Imobile
6 331 28-01-2016 17:09:21  StarPOM
25 1057 26-01-2016 15:23:58  Zippo
3 250 07-01-2016 00:45:42  okruk
4 249 05-01-2016 10:25:43  markaru
465 Нужна помощь специалистов!  Мастер на все руки
30 1374 02-01-2016 20:05:38  racon75
7 221 24-12-2015 12:08:34  lexus80
22 2824 21-12-2015 14:22:31  Kuz
14 386 14-12-2015 15:59:50  YuSTas
8 340 12-12-2015 20:20:10  Shamankiller
15 625 12-12-2015 18:02:39  racon75
38 980 08-12-2015 23:46:50  asor
35 918 08-12-2015 18:35:57  dm6
8 369 07-12-2015 21:25:28  Dimon
25 918 04-12-2015 21:36:10  Silmaril
475 Лазерный станок Kamach II 1280 AS  радион рашитович
4 243 04-12-2015 20:36:20  Airside
4 308 04-12-2015 10:56:16  Drakonstar
9 665 29-11-2015 02:45:00  Лазорез
38 829 27-11-2015 18:12:36  ЫХ-000
41 1505 27-11-2015 12:34:06  Slym
44 1905 22-11-2015 11:50:31  _king_

Вы здесь » Форум клана ЧПУшников » Лазерные станки